createdAt,value
2023-02-17T00:01:49.191Z,51.60
2023-02-17T00:04:36.164Z,50.60
2023-02-17T00:07:23.960Z,52.30
2023-02-17T00:10:10.707Z,50.90
2023-02-17T00:12:57.405Z,51.50
2023-02-17T00:15:43.995Z,51.90
2023-02-17T00:18:30.956Z,51.50
2023-02-17T00:21:20.405Z,51.10
2023-02-17T00:24:07.007Z,52.00
2023-02-17T00:26:53.872Z,53.30
2023-02-17T00:29:40.474Z,50.50
2023-02-17T00:32:27.287Z,51.70
2023-02-17T00:35:14.084Z,53.00
2023-02-17T00:38:00.636Z,51.70
2023-02-17T00:40:47.464Z,51.30
2023-02-17T00:43:34.702Z,53.00
2023-02-17T00:46:22.203Z,51.40
2023-02-17T00:49:14.306Z,50.00
2023-02-17T00:52:02.192Z,50.60
2023-02-17T00:54:48.933Z,50.80
2023-02-17T00:57:35.776Z,51.20
2023-02-17T01:00:22.832Z,50.90
2023-02-17T01:03:11.179Z,49.50
2023-02-17T01:05:57.697Z,49.10
2023-02-17T01:08:44.572Z,49.40
2023-02-17T01:11:33.061Z,49.90
2023-02-17T01:14:19.455Z,48.80
2023-02-17T01:17:06.263Z,49.50
2023-02-17T01:19:53.150Z,49.90
2023-02-17T01:22:40.092Z,49.60
2023-02-17T01:25:26.538Z,49.40
2023-02-17T01:28:21.146Z,50.40
2023-02-17T01:31:09.554Z,49.20
2023-02-17T01:33:58.254Z,49.30
2023-02-17T01:36:44.560Z,48.90
2023-02-17T01:39:31.271Z,48.30
2023-02-17T01:42:22.300Z,49.70
2023-02-17T01:45:17.932Z,50.00
2023-02-17T01:48:16.808Z,49.40
2023-02-17T01:51:21.549Z,47.50
2023-02-17T01:54:16.695Z,48.90
2023-02-17T01:57:03.738Z,49.90
2023-02-17T01:59:51.206Z,49.20
2023-02-17T02:02:40.340Z,49.00
2023-02-17T02:05:26.814Z,49.10
2023-02-17T02:08:15.337Z,49.30
2023-02-17T02:11:01.606Z,49.60
2023-02-17T02:13:50.647Z,49.70
2023-02-17T02:16:49.693Z,49.50
2023-02-17T02:19:48.338Z,48.10
2023-02-17T02:22:59.115Z,50.00
2023-02-17T02:26:04.940Z,49.40
2023-02-17T02:29:20.589Z,48.70
2023-02-17T02:32:38.721Z,48.50
2023-02-17T02:35:51.952Z,47.60
2023-02-17T02:38:47.127Z,48.60
2023-02-17T02:41:38.132Z,48.40
2023-02-17T02:44:25.140Z,48.10
2023-02-17T02:47:39.779Z,48.50
2023-02-17T02:51:00.980Z,47.10
2023-02-17T02:54:36.046Z,47.60
2023-02-17T02:57:30.394Z,46.70
2023-02-17T03:00:35.877Z,48.60
2023-02-17T03:03:44.396Z,48.30
2023-02-17T03:06:39.876Z,48.50
2023-02-17T03:09:27.677Z,47.80
2023-02-17T03:12:15.155Z,48.20
2023-02-17T03:15:08.521Z,47.60
2023-02-17T03:17:59.874Z,49.30
2023-02-17T03:20:54.566Z,49.90
2023-02-17T03:23:40.891Z,47.90
2023-02-17T03:26:27.715Z,49.60
2023-02-17T03:29:14.575Z,48.90
2023-02-17T03:32:01.579Z,48.40
2023-02-17T03:34:48.046Z,49.60
2023-02-17T03:37:34.896Z,47.60
2023-02-17T03:40:21.559Z,48.30
2023-02-17T03:43:09.277Z,48.70
2023-02-17T03:45:56.104Z,47.00
2023-02-17T03:48:43.524Z,48.50
2023-02-17T03:51:30.162Z,48.90
2023-02-17T03:54:16.995Z,48.50
2023-02-17T03:57:03.815Z,48.10
2023-02-17T03:59:50.335Z,49.00
2023-02-17T04:02:36.966Z,49.90
2023-02-17T04:05:24.568Z,50.60
2023-02-17T04:08:12.056Z,51.70
2023-02-17T04:11:01.362Z,51.90
2023-02-17T04:13:47.898Z,50.70
2023-02-17T04:16:34.716Z,52.70
2023-02-17T04:19:21.430Z,52.10
2023-02-17T04:22:09.030Z,51.00
2023-02-17T04:24:55.872Z,50.90
2023-02-17T04:27:42.738Z,52.60
2023-02-17T04:30:29.521Z,52.70
2023-02-17T04:33:17.540Z,51.60
2023-02-17T04:36:05.508Z,52.90
2023-02-17T04:38:52.305Z,51.40
2023-02-17T04:41:38.843Z,51.70
2023-02-17T04:44:25.818Z,53.60
2023-02-17T04:47:12.773Z,53.50
2023-02-17T04:49:59.482Z,52.40
2023-02-17T04:52:46.001Z,52.40
2023-02-17T04:55:33.514Z,53.70
2023-02-17T04:58:21.267Z,52.10
2023-02-17T05:01:07.898Z,54.50
2023-02-17T05:03:54.479Z,52.60
2023-02-17T05:06:41.250Z,53.90
2023-02-17T05:09:27.790Z,53.00
2023-02-17T05:12:14.603Z,54.70
2023-02-17T05:15:01.609Z,53.30
2023-02-17T05:17:48.508Z,55.50
2023-02-17T05:20:35.060Z,55.20
2023-02-17T05:23:21.980Z,55.00
2023-02-17T05:26:09.846Z,56.50
2023-02-17T05:28:57.743Z,58.40
2023-02-17T05:31:44.814Z,58.70
2023-02-17T05:34:32.109Z,58.00
2023-02-17T05:37:18.730Z,59.40
2023-02-17T05:40:06.414Z,57.80
2023-02-17T05:42:53.058Z,56.90
2023-02-17T05:45:39.793Z,57.00
2023-02-17T05:48:26.330Z,57.00
2023-02-17T05:51:17.225Z,55.00
2023-02-17T05:54:04.117Z,54.40
2023-02-17T05:56:50.559Z,55.40
2023-02-17T05:59:37.244Z,54.80
2023-02-17T06:02:23.976Z,56.70
2023-02-17T06:05:11.257Z,55.20
2023-02-17T06:07:58.089Z,55.80
2023-02-17T06:10:44.760Z,56.20
2023-02-17T06:13:31.336Z,53.90
2023-02-17T06:16:17.965Z,54.50
2023-02-17T06:19:06.566Z,53.00
2023-02-17T06:21:53.053Z,53.00
2023-02-17T06:24:39.866Z,53.10
2023-02-17T06:27:26.576Z,52.60
2023-02-17T06:30:15.119Z,52.10
2023-02-17T06:33:03.005Z,51.60
2023-02-17T06:35:51.646Z,51.90
2023-02-17T06:38:38.324Z,50.30
2023-02-17T06:41:25.079Z,50.90
2023-02-17T06:44:11.845Z,52.50
2023-02-17T06:46:59.426Z,50.90
2023-02-17T06:49:46.107Z,50.70
2023-02-17T06:52:32.649Z,48.70
2023-02-17T06:55:19.832Z,49.50
2023-02-17T06:58:07.544Z,48.80
2023-02-17T07:00:54.159Z,47.00
2023-02-17T07:03:40.755Z,46.70
2023-02-17T07:06:28.904Z,45.90
2023-02-17T07:09:15.331Z,47.00
2023-02-17T07:12:02.774Z,47.50
2023-02-17T07:14:49.414Z,47.80
2023-02-17T07:17:35.995Z,46.60
2023-02-17T07:20:22.729Z,46.70
2023-02-17T07:23:09.437Z,45.90
2023-02-17T07:25:56.374Z,45.20
2023-02-17T07:28:43.195Z,45.50
2023-02-17T07:31:30.251Z,46.50
2023-02-17T07:34:16.754Z,46.10
2023-02-17T07:37:03.492Z,43.60
2023-02-17T07:39:50.265Z,44.40
2023-02-17T07:42:36.950Z,44.90
2023-02-17T07:45:23.600Z,44.90
2023-02-17T07:48:10.452Z,45.70
2023-02-17T07:50:57.440Z,45.30
2023-02-17T07:53:43.838Z,44.30
2023-02-17T07:56:30.552Z,43.90
2023-02-17T07:59:16.889Z,42.90
2023-02-17T08:02:06.570Z,43.00
2023-02-17T08:04:53.322Z,42.20
2023-02-17T08:07:40.183Z,44.90
2023-02-17T08:10:46.690Z,43.40
2023-02-17T08:13:35.939Z,43.90
2023-02-17T08:16:22.252Z,41.50
2023-02-17T08:19:09.507Z,41.60
2023-02-17T08:21:56.096Z,39.90
2023-02-17T08:24:42.618Z,42.20
2023-02-17T08:27:29.228Z,40.90
2023-02-17T08:30:16.133Z,40.70
2023-02-17T08:33:02.532Z,41.00
2023-02-17T08:35:49.511Z,40.70
2023-02-17T08:38:36.173Z,39.90
2023-02-17T08:41:29.034Z,39.60
2023-02-17T08:44:18.825Z,39.50
2023-02-17T08:47:06.812Z,39.70
2023-02-17T08:49:53.799Z,38.80
2023-02-17T08:52:40.208Z,39.30
2023-02-17T08:55:35.565Z,38.80
2023-02-17T08:58:30.595Z,39.20
2023-02-17T09:01:19.225Z,39.50
2023-02-17T09:04:08.450Z,38.60
2023-02-17T09:06:56.786Z,39.50
2023-02-17T09:09:43.926Z,38.70
2023-02-17T09:12:30.914Z,38.70
2023-02-17T09:15:17.298Z,37.80
2023-02-17T09:18:04.008Z,38.50
2023-02-17T09:20:51.394Z,38.60
2023-02-17T09:23:38.497Z,38.00
2023-02-17T09:26:24.924Z,38.50
2023-02-17T09:29:11.854Z,39.40
2023-02-17T09:31:58.369Z,38.30
2023-02-17T09:34:51.514Z,39.10
2023-02-17T09:37:38.166Z,38.40
2023-02-17T09:40:33.064Z,38.70
2023-02-17T09:43:28.908Z,38.10
2023-02-17T09:46:24.131Z,38.20
2023-02-17T09:49:24.691Z,38.70
2023-02-17T09:52:21.215Z,39.30
2023-02-17T09:55:18.340Z,38.00
2023-02-17T09:58:20.172Z,38.60
2023-02-17T10:01:12.422Z,38.10
2023-02-17T10:04:07.397Z,39.40
2023-02-17T10:07:02.403Z,38.40
2023-02-17T10:09:58.437Z,38.10
2023-02-17T10:12:50.607Z,39.00
2023-02-17T10:16:10.179Z,40.30
2023-02-17T10:19:14.537Z,40.80
2023-02-17T10:22:14.946Z,39.90
2023-02-17T10:25:04.935Z,40.60
2023-02-17T10:28:17.430Z,40.70
2023-02-17T10:31:10.825Z,39.90
2023-02-17T10:34:20.338Z,40.50
2023-02-17T10:37:22.072Z,40.70
2023-02-17T10:40:15.534Z,41.50
2023-02-17T10:43:07.745Z,41.90
2023-02-17T10:45:57.711Z,41.60
2023-02-17T10:48:53.248Z,41.10
2023-02-17T10:51:39.515Z,41.10
2023-02-17T10:54:36.086Z,40.50
2023-02-17T10:57:26.731Z,39.00
2023-02-17T11:00:18.694Z,40.20
2023-02-17T11:03:05.383Z,40.00
2023-02-17T11:06:06.469Z,41.20
2023-02-17T11:08:58.812Z,42.60
2023-02-17T11:12:02.629Z,41.60
2023-02-17T11:14:54.285Z,40.90
2023-02-17T11:17:41.413Z,42.70
2023-02-17T11:20:33.195Z,40.70
2023-02-17T11:23:24.671Z,42.30
2023-02-17T11:26:18.508Z,41.30
2023-02-17T11:29:16.795Z,42.30
2023-02-17T11:32:11.117Z,42.30
2023-02-17T11:34:59.089Z,42.70
2023-02-17T11:37:45.374Z,43.20
2023-02-17T11:40:33.269Z,44.60
2023-02-17T11:43:20.856Z,45.90
2023-02-17T11:46:10.340Z,43.50
2023-02-17T11:49:06.318Z,44.40
2023-02-17T11:52:04.700Z,43.70
2023-02-17T11:55:39.023Z,44.40
2023-02-17T11:58:59.037Z,44.40
2023-02-17T12:02:02.122Z,43.20
2023-02-17T12:05:13.457Z,42.40
2023-02-17T12:08:23.175Z,42.60
2023-02-17T12:11:27.512Z,43.40
2023-02-17T12:14:45.694Z,43.20
2023-02-17T12:18:11.815Z,43.40
2023-02-17T12:21:07.239Z,42.50
2023-02-17T12:24:02.664Z,42.30
2023-02-17T12:27:12.300Z,41.80
2023-02-17T12:30:11.017Z,40.60
2023-02-17T12:33:31.238Z,40.90
2023-02-17T12:36:19.807Z,40.40
2023-02-17T12:39:35.251Z,41.40
2023-02-17T12:42:37.310Z,39.00
2023-02-17T12:45:36.868Z,40.80
2023-02-17T12:48:50.067Z,38.80
2023-02-17T12:51:51.207Z,39.60
2023-02-17T12:54:47.025Z,38.80
2023-02-17T12:57:55.963Z,38.00
2023-02-17T13:00:46.490Z,36.90
2023-02-17T13:03:34.960Z,37.20
2023-02-17T13:06:32.833Z,36.60
2023-02-17T13:09:31.670Z,36.10
2023-02-17T13:12:33.300Z,36.00
2023-02-17T13:15:34.693Z,37.10
2023-02-17T13:18:24.133Z,35.50
2023-02-17T13:21:27.517Z,36.90
2023-02-17T13:24:30.641Z,34.80
2023-02-17T13:27:34.090Z,35.30
2023-02-17T13:30:26.763Z,32.50
2023-02-17T13:33:22.888Z,49.00
2023-02-17T13:36:16.638Z,37.80
2023-02-17T13:39:26.899Z,31.00
2023-02-17T13:42:32.426Z,30.80
2023-02-17T13:45:59.728Z,31.50
2023-02-17T13:48:46.296Z,31.90
2023-02-17T13:51:34.033Z,33.20
2023-02-17T13:54:23.190Z,33.20
2023-02-17T13:57:23.008Z,32.50
2023-02-17T14:00:31.565Z,33.00
2023-02-17T14:03:25.686Z,33.10
2023-02-17T14:06:19.669Z,32.30
2023-02-17T14:09:20.701Z,32.80
2023-02-17T14:12:17.503Z,30.70
2023-02-17T14:15:04.424Z,30.80
2023-02-17T14:17:50.818Z,32.50
2023-02-17T14:20:37.635Z,31.40
2023-02-17T14:23:24.267Z,31.30
2023-02-17T14:26:27.894Z,32.30
2023-02-17T14:29:15.882Z,32.00
2023-02-17T14:32:02.388Z,32.40
2023-02-17T14:34:48.946Z,32.80
2023-02-17T14:37:37.036Z,32.20
2023-02-17T14:40:25.217Z,33.00
2023-02-17T14:43:11.673Z,32.80
2023-02-17T14:45:58.291Z,32.30
2023-02-17T14:48:44.578Z,31.10
2023-02-17T14:51:36.949Z,31.50
2023-02-17T14:54:26.326Z,31.60
2023-02-17T14:57:15.360Z,30.60
2023-02-17T15:00:01.870Z,30.50
2023-02-17T15:02:48.493Z,29.80
2023-02-17T15:05:35.141Z,30.30
2023-02-17T15:08:29.976Z,29.40
2023-02-17T15:11:20.826Z,30.60
2023-02-17T15:14:07.432Z,29.70
2023-02-17T15:16:53.646Z,31.70
2023-02-17T15:19:40.923Z,30.80
2023-02-17T15:22:27.368Z,30.70
2023-02-17T15:25:17.063Z,33.10
2023-02-17T15:28:04.124Z,32.90
2023-02-17T15:30:54.379Z,31.50
2023-02-17T15:33:41.280Z,31.90
2023-02-17T15:36:28.567Z,33.00
2023-02-17T15:39:18.395Z,32.30
2023-02-17T15:42:11.611Z,33.30
2023-02-17T15:44:58.955Z,32.30
2023-02-17T15:47:50.846Z,33.30
2023-02-17T15:50:37.356Z,33.40
2023-02-17T15:53:23.909Z,34.00
2023-02-17T15:56:20.356Z,34.90
2023-02-17T15:59:11.847Z,35.20
2023-02-17T16:02:01.288Z,36.50
2023-02-17T16:04:48.431Z,39.50
2023-02-17T16:07:36.353Z,39.30
2023-02-17T16:10:29.976Z,56.30
2023-02-17T16:13:19.570Z,47.20
2023-02-17T16:16:14.908Z,36.20
2023-02-17T16:19:02.506Z,40.10
2023-02-17T16:21:48.957Z,32.40
2023-02-17T16:24:35.317Z,32.50
2023-02-17T16:27:21.964Z,32.30
2023-02-17T16:30:30.747Z,32.30
2023-02-17T16:33:18.035Z,31.10
2023-02-17T16:36:10.689Z,30.80
2023-02-17T16:38:56.918Z,31.20
2023-02-17T16:41:44.408Z,31.70
2023-02-17T16:44:31.018Z,31.20
2023-02-17T16:47:20.923Z,32.10
2023-02-17T16:50:09.320Z,34.00
2023-02-17T16:52:59.471Z,32.00
2023-02-17T16:55:46.381Z,31.70
2023-02-17T16:58:32.723Z,31.20
2023-02-17T17:01:19.008Z,30.50
2023-02-17T17:04:06.055Z,31.00
2023-02-17T17:06:52.629Z,29.40
2023-02-17T17:09:39.083Z,29.90
2023-02-17T17:12:25.686Z,29.30
2023-02-17T17:15:13.019Z,28.60
2023-02-17T17:18:07.437Z,27.60
2023-02-17T17:20:53.567Z,28.70
2023-02-17T17:23:40.399Z,28.10
2023-02-17T17:26:41.736Z,27.90
2023-02-17T17:29:28.358Z,27.10
2023-02-17T17:32:14.955Z,28.00
2023-02-17T17:35:01.467Z,27.00
2023-02-17T17:37:48.124Z,28.00
2023-02-17T17:40:48.439Z,26.20
2023-02-17T17:43:35.005Z,26.10
2023-02-17T17:46:24.764Z,28.00
2023-02-17T17:49:14.204Z,27.80
2023-02-17T17:52:00.493Z,27.10
2023-02-17T17:54:46.897Z,26.30
2023-02-17T17:57:33.598Z,26.70
2023-02-17T18:00:20.217Z,26.20
2023-02-17T18:03:06.668Z,26.00
2023-02-17T18:05:52.956Z,25.50
2023-02-17T18:08:40.066Z,24.90
2023-02-17T18:11:27.329Z,25.30
2023-02-17T18:14:15.697Z,23.40
2023-02-17T18:17:02.465Z,21.70
2023-02-17T18:19:49.687Z,21.90
2023-02-17T18:22:35.974Z,21.00
2023-02-17T18:25:23.056Z,21.20
2023-02-17T18:28:09.298Z,20.40
2023-02-17T18:30:57.086Z,20.60
2023-02-17T18:33:43.947Z,19.80
2023-02-17T18:36:31.120Z,19.50
2023-02-17T18:39:17.471Z,19.90
2023-02-17T18:42:05.064Z,18.40
2023-02-17T18:44:52.235Z,19.60
2023-02-17T18:47:38.801Z,19.70
2023-02-17T18:50:26.414Z,20.20
2023-02-17T18:53:12.841Z,20.00
2023-02-17T18:56:01.752Z,19.40
2023-02-17T18:58:49.706Z,19.10
2023-02-17T19:01:39.461Z,20.20
2023-02-17T19:04:26.160Z,19.10
2023-02-17T19:07:12.795Z,18.80
2023-02-17T19:09:59.396Z,18.30
2023-02-17T19:12:45.786Z,18.80
2023-02-17T19:15:32.554Z,18.90
2023-02-17T19:18:19.113Z,18.60
2023-02-17T19:21:06.963Z,19.00
2023-02-17T19:23:53.749Z,20.00
2023-02-17T19:26:40.464Z,19.90
2023-02-17T19:29:26.665Z,19.50
2023-02-17T19:32:13.654Z,20.30
2023-02-17T19:34:59.851Z,21.50
2023-02-17T19:37:46.350Z,22.30
2023-02-17T19:40:35.003Z,23.40
2023-02-17T19:43:21.206Z,23.10
2023-02-17T19:46:08.338Z,23.90
2023-02-17T19:48:54.998Z,25.10
2023-02-17T19:51:41.484Z,25.70
2023-02-17T19:54:27.809Z,26.10
2023-02-17T19:57:17.446Z,27.30
2023-02-17T20:00:05.604Z,27.60
2023-02-17T20:02:51.995Z,28.30
2023-02-17T20:05:40.004Z,27.80
2023-02-17T20:08:26.600Z,28.20
2023-02-17T20:11:14.475Z,29.50
2023-02-17T20:14:01.892Z,30.30
2023-02-17T20:16:53.445Z,28.70
2023-02-17T20:19:41.029Z,28.80
2023-02-17T20:22:27.334Z,27.70
2023-02-17T20:25:13.697Z,26.70
2023-02-17T20:27:59.999Z,26.40
2023-02-17T20:30:46.268Z,27.20
2023-02-17T20:33:32.686Z,26.50
2023-02-17T20:36:18.991Z,26.40
2023-02-17T20:39:05.446Z,25.50
2023-02-17T20:41:54.860Z,25.60
2023-02-17T20:44:42.125Z,23.30
2023-02-17T20:47:29.742Z,22.50
2023-02-17T20:50:18.910Z,21.50
2023-02-17T20:53:05.167Z,21.20
2023-02-17T20:55:52.117Z,20.40
2023-02-17T20:58:40.228Z,20.70
2023-02-17T21:01:27.227Z,20.00
2023-02-17T21:04:15.254Z,19.40
2023-02-17T21:07:01.748Z,18.50
2023-02-17T21:09:48.311Z,17.80
2023-02-17T21:12:34.920Z,16.40
2023-02-17T21:15:21.825Z,15.90
2023-02-17T21:18:09.240Z,15.50
2023-02-17T21:20:55.555Z,15.10
2023-02-17T21:23:42.283Z,14.80
2023-02-17T21:26:28.475Z,14.10
2023-02-17T21:29:15.005Z,14.20
2023-02-17T21:32:01.295Z,14.30
2023-02-17T21:34:47.675Z,13.70
2023-02-17T21:37:34.464Z,13.00
2023-02-17T21:40:21.219Z,13.20
2023-02-17T21:43:39.600Z,12.20
2023-02-17T21:46:26.973Z,12.40
2023-02-17T21:49:13.944Z,10.80
2023-02-17T21:52:00.432Z,10.50
2023-02-17T21:54:46.495Z,9.80
2023-02-17T21:57:33.285Z,9.50
2023-02-17T22:00:19.986Z,8.60
2023-02-17T22:03:06.478Z,8.40
2023-02-17T22:05:53.019Z,8.00
2023-02-17T22:08:39.645Z,8.00
2023-02-17T22:11:30.026Z,8.30
2023-02-17T22:14:18.751Z,8.40
2023-02-17T22:17:05.049Z,7.80
2023-02-17T22:19:51.448Z,6.70
2023-02-17T22:22:37.827Z,6.40
2023-02-17T22:25:24.590Z,6.70
2023-02-17T22:28:13.426Z,6.10
2023-02-17T22:31:00.558Z,5.20
2023-02-17T22:33:47.359Z,5.10
2023-02-17T22:36:35.385Z,4.30
2023-02-17T22:39:21.667Z,4.10
2023-02-17T22:42:08.060Z,3.00
2023-02-17T22:44:54.647Z,2.80
2023-02-17T22:47:41.118Z,2.60
2023-02-17T22:50:27.332Z,2.80
2023-02-17T22:53:13.678Z,2.50
2023-02-17T22:55:59.734Z,2.50
2023-02-17T22:58:46.073Z,2.30
2023-02-17T23:01:35.466Z,2.60
2023-02-17T23:04:21.687Z,2.30
2023-02-17T23:07:08.665Z,2.20
2023-02-17T23:09:55.237Z,2.40
2023-02-17T23:12:41.462Z,2.10
2023-02-17T23:15:39.787Z,2.00
2023-02-17T23:18:27.486Z,1.90
2023-02-17T23:21:13.833Z,2.10
2023-02-17T23:24:00.258Z,2.40
2023-02-17T23:26:47.611Z,3.10
2023-02-17T23:29:34.852Z,4.30
2023-02-17T23:32:21.100Z,2.10
2023-02-17T23:35:07.728Z,3.50
2023-02-17T23:37:54.050Z,2.90
2023-02-17T23:40:42.041Z,5.30
2023-02-17T23:43:28.679Z,4.70
2023-02-17T23:46:15.000Z,3.60
2023-02-17T23:49:01.598Z,3.30
2023-02-17T23:51:47.855Z,2.40
2023-02-17T23:54:34.072Z,2.30
2023-02-17T23:57:20.395Z,2.20
